sensor_id;sensor_type;location;lat;lon;timestamp;pressure;altitude;pressure_sealevel;temperature;humidity
71057;BME280;58380;48.312;9.246;2024-01-30T07:45:37;94904.16;;;-3.16;100.00
71057;BME280;58380;48.312;9.246;2024-01-30T07:48:38;94917.69;;;-3.04;100.00
71057;BME280;58380;48.312;9.246;2024-01-30T07:51:38;94906.78;;;-2.98;100.00
71057;BME280;58380;48.312;9.246;2024-01-30T07:54:39;94919.75;;;-2.80;100.00
71057;BME280;58380;48.312;9.246;2024-01-30T07:57:40;94924.88;;;-2.70;100.00
71057;BME280;58380;48.312;9.246;2024-01-30T08:00:40;94905.53;;;-2.66;100.00
71057;BME280;58380;48.312;9.246;2024-01-30T08:03:41;94883.56;;;-2.80;100.00
71057;BME280;58380;48.312;9.246;2024-01-30T08:06:42;94892.75;;;-2.68;100.00
71057;BME280;58380;48.312;9.246;2024-01-30T08:09:42;94903.19;;;-2.59;100.00
71057;BME280;58380;48.312;9.246;2024-01-30T08:12:43;94882.56;;;-2.69;100.00
71057;BME280;58380;48.312;9.246;2024-01-30T08:15:43;94895.59;;;-2.43;100.00
71057;BME280;58380;48.312;9.246;2024-01-30T08:18:44;94910.16;;;-2.24;100.00
71057;BME280;58380;48.312;9.246;2024-01-30T08:21:44;94893.81;;;-2.25;100.00
71057;BME280;58380;48.312;9.246;2024-01-30T08:24:44;94912.09;;;-2.08;100.00
71057;BME280;58380;48.312;9.246;2024-01-30T08:27:45;94908.31;;;-1.96;100.00
71057;BME280;58380;48.312;9.246;2024-01-30T08:30:45;94904.53;;;-1.84;100.00
71057;BME280;58380;48.312;9.246;2024-01-30T08:33:46;94900.56;;;-1.70;100.00
71057;BME280;58380;48.312;9.246;2024-01-30T08:36:46;94915.81;;;-1.41;100.00
71057;BME280;58380;48.312;9.246;2024-01-30T08:39:47;94887.34;;;-1.41;100.00
71057;BME280;58380;48.312;9.246;2024-01-30T08:42:47;94902.97;;;-1.24;100.00
71057;BME280;58380;48.312;9.246;2024-01-30T08:45:47;94904.97;;;-1.10;100.00
71057;BME280;58380;48.312;9.246;2024-01-30T08:48:48;94880.69;;;-1.17;100.00
71057;BME280;58380;48.312;9.246;2024-01-30T08:51:48;94908.00;;;-0.89;100.00
71057;BME280;58380;48.312;9.246;2024-01-30T08:54:50;94869.59;;;-0.93;100.00
71057;BME280;58380;48.312;9.246;2024-01-30T08:57:50;94916.91;;;-0.49;100.00
71057;BME280;58380;48.312;9.246;2024-01-30T09:00:52;94904.91;;;-0.41;100.00
71057;BME280;58380;48.312;9.246;2024-01-30T09:03:53;94903.97;;;-0.32;100.00
71057;BME280;58380;48.312;9.246;2024-01-30T09:06:53;94902.84;;;-0.22;100.00
71057;BME280;58380;48.312;9.246;2024-01-30T09:09:53;94886.66;;;-0.07;100.00
71057;BME280;58380;48.312;9.246;2024-01-30T09:12:54;94896.06;;;0.02;100.00
71057;BME280;58380;48.312;9.246;2024-01-30T09:15:54;94910.84;;;0.26;100.00
71057;BME280;58380;48.312;9.246;2024-01-30T09:18:55;94912.13;;;0.38;100.00
71057;BME280;58380;48.312;9.246;2024-01-30T09:21:56;94925.63;;;0.50;100.00
71057;BME280;58380;48.312;9.246;2024-01-30T09:24:57;94932.72;;;0.73;100.00
71057;BME280;58380;48.312;9.246;2024-01-30T09:27:58;94906.09;;;0.71;100.00
71057;BME280;58380;48.312;9.246;2024-01-30T09:31:02;94930.41;;;0.94;100.00
71057;BME280;58380;48.312;9.246;2024-01-30T09:34:02;94925.31;;;1.09;100.00
71057;BME280;58380;48.312;9.246;2024-01-30T09:37:03;94913.78;;;1.12;100.00
71057;BME280;58380;48.312;9.246;2024-01-30T09:40:04;94921.50;;;1.36;100.00
71057;BME280;58380;48.312;9.246;2024-01-30T09:43:05;94924.69;;;1.46;100.00
71057;BME280;58380;48.312;9.246;2024-01-30T09:46:08;94925.88;;;1.75;100.00
71057;BME280;58380;48.312;9.246;2024-01-30T09:49:13;94926.25;;;1.95;100.00
71057;BME280;58380;48.312;9.246;2024-01-30T09:52:14;94889.53;;;1.82;100.00
71057;BME280;58380;48.312;9.246;2024-01-30T09:55:15;94881.50;;;1.91;100.00
71057;BME280;58380;48.312;9.246;2024-01-30T09:58:15;94912.47;;;2.32;100.00
71057;BME280;58380;48.312;9.246;2024-01-30T10:01:17;94903.94;;;2.38;100.00
71057;BME280;58380;48.312;9.246;2024-01-30T10:04:19;94917.03;;;2.53;100.00
71057;BME280;58380;48.312;9.246;2024-01-30T10:07:19;94894.28;;;2.47;100.00
71057;BME280;58380;48.312;9.246;2024-01-30T10:10:22;94924.63;;;2.78;100.00
71057;BME280;58380;48.312;9.246;2024-01-30T10:13:25;94924.91;;;2.98;100.00
71057;BME280;58380;48.312;9.246;2024-01-30T10:16:25;94895.22;;;3.14;100.00
71057;BME280;58380;48.312;9.246;2024-01-30T10:19:26;94874.47;;;3.06;100.00
71057;BME280;58380;48.312;9.246;2024-01-30T10:22:26;94896.78;;;3.23;100.00
71057;BME280;58380;48.312;9.246;2024-01-30T10:25:27;94922.75;;;3.46;100.00
71057;BME280;58380;48.312;9.246;2024-01-30T10:28:27;94919.31;;;3.60;100.00
71057;BME280;58380;48.312;9.246;2024-01-30T10:31:30;94894.78;;;3.76;100.00
71057;BME280;58380;48.312;9.246;2024-01-30T10:34:31;94914.03;;;4.11;97.00
71057;BME280;58380;48.312;9.246;2024-01-30T10:37:32;94898.63;;;4.38;92.70
71057;BME280;58380;48.312;9.246;2024-01-30T10:40:33;94900.03;;;4.62;89.75
71057;BME280;58380;48.312;9.246;2024-01-30T10:43:36;94888.25;;;4.73;87.05
71057;BME280;58380;48.312;9.246;2024-01-30T10:46:42;94895.44;;;4.99;82.86
71057;BME280;58380;48.312;9.246;2024-01-30T10:49:51;94893.31;;;5.09;83.96
71057;BME280;58380;48.312;9.246;2024-01-30T10:52:54;94911.16;;;5.34;83.83
71057;BME280;58380;48.312;9.246;2024-01-30T10:55:57;94893.22;;;5.24;87.59
71057;BME280;58380;48.312;9.246;2024-01-30T10:58:59;94875.47;;;5.26;91.82
71057;BME280;58380;48.312;9.246;2024-01-30T11:02:00;94898.28;;;5.39;89.96
71057;BME280;58380;48.312;9.246;2024-01-30T11:05:04;94884.59;;;5.37;87.10
71057;BME280;58380;48.312;9.246;2024-01-30T11:08:14;94886.66;;;5.48;86.31
71057;BME280;58380;48.312;9.246;2024-01-30T11:11:16;94880.66;;;5.61;84.93
71057;BME280;58380;48.312;9.246;2024-01-30T11:14:16;94900.09;;;5.80;84.79
71057;BME280;58380;48.312;9.246;2024-01-30T11:17:27;94894.63;;;5.81;85.71
71057;BME280;58380;48.312;9.246;2024-01-30T11:20:29;94868.44;;;5.75;85.04
71057;BME280;58380;48.312;9.246;2024-01-30T11:23:35;94857.34;;;5.73;83.73
71057;BME280;58380;48.312;9.246;2024-01-30T11:26:36;94882.75;;;5.86;81.04
71057;BME280;58380;48.312;9.246;2024-01-30T11:29:39;94874.09;;;5.85;80.63
71057;BME280;58380;48.312;9.246;2024-01-30T11:32:40;94845.97;;;6.07;70.26
71057;BME280;58380;48.312;9.246;2024-01-30T11:35:44;94865.38;;;6.59;67.46
71057;BME280;58380;48.312;9.246;2024-01-30T11:38:45;94862.69;;;6.86;68.30
71057;BME280;58380;48.312;9.246;2024-01-30T11:41:48;94840.91;;;6.85;67.38
71057;BME280;58380;48.312;9.246;2024-01-30T11:44:51;94866.31;;;7.11;64.56
71057;BME280;58380;48.312;9.246;2024-01-30T11:47:52;94859.63;;;7.16;68.91
71057;BME280;58380;48.312;9.246;2024-01-30T11:50:54;94863.69;;;7.11;72.12
71057;BME280;58380;48.312;9.246;2024-01-30T11:53:54;94868.31;;;7.16;70.41
71057;BME280;58380;48.312;9.246;2024-01-30T11:56:54;94851.19;;;7.07;71.19
71057;BME280;58380;48.312;9.246;2024-01-30T11:59:55;94866.28;;;7.25;68.49
71057;BME280;58380;48.312;9.246;2024-01-30T12:02:55;94856.16;;;7.28;68.63
71057;BME280;58380;48.312;9.246;2024-01-30T12:05:57;94852.66;;;7.41;67.82
71057;BME280;58380;48.312;9.246;2024-01-30T12:09:03;94859.53;;;7.49;66.41
71057;BME280;58380;48.312;9.246;2024-01-30T12:12:10;94852.63;;;7.54;63.74
71057;BME280;58380;48.312;9.246;2024-01-30T12:15:12;94848.09;;;7.75;63.58
71057;BME280;58380;48.312;9.246;2024-01-30T12:18:13;94844.56;;;7.94;61.13
71057;BME280;58380;48.312;9.246;2024-01-30T12:21:17;94823.47;;;8.01;60.73
71057;BME280;58380;48.312;9.246;2024-01-30T12:24:18;94791.84;;;7.83;61.32
71057;BME280;58380;48.312;9.246;2024-01-30T12:27:18;94835.31;;;8.17;59.70
71057;BME280;58380;48.312;9.246;2024-01-30T12:30:20;94801.75;;;8.12;59.25
71057;BME280;58380;48.312;9.246;2024-01-30T12:33:21;94808.75;;;8.25;59.54
71057;BME280;58380;48.312;9.246;2024-01-30T12:36:22;94825.38;;;8.51;59.39
71057;BME280;58380;48.312;9.246;2024-01-30T12:39:23;94825.38;;;8.51;58.83
71057;BME280;58380;48.312;9.246;2024-01-30T12:42:23;94834.41;;;8.61;58.21
71057;BME280;58380;48.312;9.246;2024-01-30T12:45:25;94822.69;;;8.57;56.50
71057;BME280;58380;48.312;9.246;2024-01-30T12:48:25;94786.19;;;8.42;56.56
71057;BME280;58380;48.312;9.246;2024-01-30T12:51:27;94813.22;;;8.75;56.43
71057;BME280;58380;48.312;9.246;2024-01-30T12:54:27;94808.41;;;8.72;58.02
71057;BME280;58380;48.312;9.246;2024-01-30T12:57:28;94822.81;;;8.88;57.00
71057;BME280;58380;48.312;9.246;2024-01-30T13:00:28;94822.63;;;9.07;57.24
71057;BME280;58380;48.312;9.246;2024-01-30T13:03:28;94819.19;;;9.25;56.47
71057;BME280;58380;48.312;9.246;2024-01-30T13:06:29;94824.97;;;9.34;59.30
71057;BME280;58380;48.312;9.246;2024-01-30T13:09:30;94831.84;;;9.35;58.13
71057;BME280;58380;48.312;9.246;2024-01-30T13:12:31;94818.38;;;9.43;58.53
71057;BME280;58380;48.312;9.246;2024-01-30T13:15:33;94813.69;;;9.45;59.69
71057;BME280;58380;48.312;9.246;2024-01-30T13:18:33;94811.72;;;9.41;60.44
71057;BME280;58380;48.312;9.246;2024-01-30T13:21:34;94812.69;;;9.46;60.91
71057;BME280;58380;48.312;9.246;2024-01-30T13:24:34;94792.72;;;9.39;60.88
71057;BME280;58380;48.312;9.246;2024-01-30T13:27:36;94822.00;;;9.61;59.37
71057;BME280;58380;48.312;9.246;2024-01-30T13:30:37;94783.97;;;9.57;59.70
71057;BME280;58380;48.312;9.246;2024-01-30T13:33:37;94811.06;;;9.64;58.34
71057;BME280;58380;48.312;9.246;2024-01-30T13:36:38;94822.00;;;9.61;59.06
71057;BME280;58380;48.312;9.246;2024-01-30T13:39:38;94806.59;;;9.46;59.97
71057;BME280;58380;48.312;9.246;2024-01-30T13:42:39;94832.06;;;9.52;58.39
71057;BME280;58380;48.312;9.246;2024-01-30T13:45:40;94827.84;;;9.51;60.42
71057;BME280;58380;48.312;9.246;2024-01-30T13:48:42;94826.50;;;9.42;62.64
71057;BME280;58380;48.312;9.246;2024-01-30T13:51:42;94829.97;;;9.24;62.88
71057;BME280;58380;48.312;9.246;2024-01-30T13:54:43;94829.00;;;9.18;63.39
71057;BME280;58380;48.312;9.246;2024-01-30T13:57:43;94795.03;;;8.92;63.84
71057;BME280;58380;48.312;9.246;2024-01-30T14:00:46;94768.53;;;8.68;65.08
71057;BME280;58380;48.312;9.246;2024-01-30T14:03:47;94823.94;;;8.98;65.45
71057;BME280;58380;48.312;9.246;2024-01-30T14:06:47;94840.72;;;9.04;65.17
71057;BME280;58380;48.312;9.246;2024-01-30T14:09:48;94847.56;;;9.05;64.75
71057;BME280;58380;48.312;9.246;2024-01-30T14:12:49;94837.69;;;9.00;64.68
71057;BME280;58380;48.312;9.246;2024-01-30T14:15:49;94841.13;;;9.01;65.64
71057;BME280;58380;48.312;9.246;2024-01-30T14:18:50;94841.06;;;9.07;66.26
71057;BME280;58380;48.312;9.246;2024-01-30T14:21:50;94840.91;;;9.02;66.43
71057;BME280;58380;48.312;9.246;2024-01-30T14:24:51;94839.97;;;8.97;67.12
71057;BME280;58380;48.312;9.246;2024-01-30T14:27:52;94842.44;;;8.92;67.81
71057;BME280;58380;48.312;9.246;2024-01-30T14:30:52;94843.44;;;8.91;68.17
71057;BME280;58380;48.312;9.246;2024-01-30T14:33:52;94842.06;;;8.88;69.56
71057;BME280;58380;48.312;9.246;2024-01-30T14:36:55;94844.78;;;8.81;69.64
71057;BME280;58380;48.312;9.246;2024-01-30T14:39:56;94850.44;;;8.78;70.49
71057;BME280;58380;48.312;9.246;2024-01-30T14:42:56;94830.75;;;8.62;70.58
71057;BME280;58380;48.312;9.246;2024-01-30T14:45:56;94842.94;;;8.57;69.56
71057;BME280;58380;48.312;9.246;2024-01-30T14:48:58;94838.97;;;8.48;69.56
71057;BME280;58380;48.312;9.246;2024-01-30T14:51:59;94855.06;;;8.58;69.15
71057;BME280;58380;48.312;9.246;2024-01-30T14:55:00;94841.03;;;8.39;69.26
71057;BME280;58380;48.312;9.246;2024-01-30T14:58:01;94846.09;;;8.40;69.23
71057;BME280;58380;48.312;9.246;2024-01-30T15:01:02;94842.66;;;8.40;69.69
71057;BME280;58380;48.312;9.246;2024-01-30T15:04:03;94846.91;;;8.41;69.60
71057;BME280;58380;48.312;9.246;2024-01-30T15:07:03;94848.97;;;8.32;70.29
71057;BME280;58380;48.312;9.246;2024-01-30T15:10:04;94837.53;;;8.20;70.57
71057;BME280;58380;48.312;9.246;2024-01-30T15:13:05;94847.00;;;8.21;71.44
71057;BME280;58380;48.312;9.246;2024-01-30T15:16:05;94837.97;;;8.10;72.18
71057;BME280;58380;48.312;9.246;2024-01-30T15:19:06;94853.25;;;7.95;72.61
71057;BME280;58380;48.312;9.246;2024-01-30T15:22:06;94867.19;;;7.95;72.97
71057;BME280;58380;48.312;9.246;2024-01-30T15:25:07;94847.91;;;7.76;73.47
71057;BME280;58380;48.312;9.246;2024-01-30T15:28:08;94869.13;;;7.75;75.12
71057;BME280;58380;48.312;9.246;2024-01-30T15:31:09;94864.75;;;7.55;76.77
71057;BME280;58380;48.312;9.246;2024-01-30T15:34:10;94872.88;;;7.41;77.82
71057;BME280;58380;48.312;9.246;2024-01-30T15:37:10;94868.09;;;7.18;79.04
71057;BME280;58380;48.312;9.246;2024-01-30T15:40:11;94864.31;;;7.00;79.85
71057;BME280;58380;48.312;9.246;2024-01-30T15:43:11;94878.84;;;6.96;81.29
71057;BME280;58380;48.312;9.246;2024-01-30T15:46:11;94876.84;;;6.78;82.47
71057;BME280;58380;48.312;9.246;2024-01-30T15:49:12;94876.25;;;6.69;83.45
71057;BME280;58380;48.312;9.246;2024-01-30T15:52:12;94864.13;;;6.48;84.34
71057;BME280;58380;48.312;9.246;2024-01-30T15:55:15;94844.34;;;6.13;85.33
71057;BME280;58380;48.312;9.246;2024-01-30T15:58:16;94890.16;;;6.37;85.06
71057;BME280;58380;48.312;9.246;2024-01-30T16:01:16;94901.44;;;6.31;86.39
71057;BME280;58380;48.312;9.246;2024-01-30T16:04:17;94878.22;;;6.08;88.95
71057;BME280;58380;48.312;9.246;2024-01-30T16:07:17;94906.47;;;6.12;90.73
71057;BME280;58380;48.312;9.246;2024-01-30T16:10:18;94880.94;;;5.86;91.28
71057;BME280;58380;48.312;9.246;2024-01-30T16:13:19;94905.38;;;5.87;91.42
71057;BME280;58380;48.312;9.246;2024-01-30T16:16:19;94914.00;;;5.80;92.04
71057;BME280;58380;48.312;9.246;2024-01-30T16:19:20;94918.97;;;5.62;92.52
71057;BME280;58380;48.312;9.246;2024-01-30T16:22:20;94905.38;;;5.45;94.06
71057;BME280;58380;48.312;9.246;2024-01-30T16:25:21;94905.16;;;5.40;94.68
71057;BME280;58380;48.312;9.246;2024-01-30T16:28:26;94928.16;;;5.45;95.62
71057;BME280;58380;48.312;9.246;2024-01-30T16:31:26;94926.88;;;5.34;95.61
71057;BME280;58380;48.312;9.246;2024-01-30T16:34:27;94929.84;;;5.24;96.09
71057;BME280;58380;48.312;9.246;2024-01-30T16:37:27;94926.72;;;5.07;96.43
71057;BME280;58380;48.312;9.246;2024-01-30T16:40:28;94938.94;;;5.00;97.24
71057;BME280;58380;48.312;9.246;2024-01-30T16:43:28;94944.34;;;4.92;98.35
71057;BME280;58380;48.312;9.246;2024-01-30T16:46:29;94931.38;;;4.84;99.05
71057;BME280;58380;48.312;9.246;2024-01-30T16:49:29;94939.22;;;4.84;99.16
71057;BME280;58380;48.312;9.246;2024-01-30T16:52:29;94943.81;;;4.82;99.60
71057;BME280;58380;48.312;9.246;2024-01-30T16:55:30;94944.34;;;4.70;100.00
71057;BME280;58380;48.312;9.246;2024-01-30T16:58:30;94937.53;;;4.48;100.00
71057;BME280;58380;48.312;9.246;2024-01-30T17:01:30;94944.50;;;4.41;100.00
71057;BME280;58380;48.312;9.246;2024-01-30T17:04:31;94945.03;;;4.36;100.00
71057;BME280;58380;48.312;9.246;2024-01-30T17:07:33;94958.56;;;4.40;100.00
71057;BME280;58380;48.312;9.246;2024-01-30T17:10:35;94926.69;;;4.08;100.00
71057;BME280;58380;48.312;9.246;2024-01-30T17:13:36;94944.59;;;4.11;100.00
71057;BME280;58380;48.312;9.246;2024-01-30T17:16:36;94953.94;;;4.20;100.00
71057;BME280;58380;48.312;9.246;2024-01-30T17:19:37;94952.13;;;4.21;100.00
71057;BME280;58380;48.312;9.246;2024-01-30T17:22:38;94957.38;;;4.21;100.00
71057;BME280;58380;48.312;9.246;2024-01-30T17:25:39;94953.81;;;4.07;100.00
71057;BME280;58380;48.312;9.246;2024-01-30T17:28:39;94967.59;;;4.01;100.00
71057;BME280;58380;48.312;9.246;2024-01-30T17:31:39;94973.75;;;3.93;100.00
71057;BME280;58380;48.312;9.246;2024-01-30T17:34:40;94974.13;;;3.90;100.00
71057;BME280;58380;48.312;9.246;2024-01-30T17:37:41;94984.38;;;3.92;100.00
71057;BME280;58380;48.312;9.246;2024-01-30T17:40:42;94995.19;;;3.88;100.00
71057;BME280;58380;48.312;9.246;2024-01-30T17:43:42;94970.72;;;3.75;100.00
71057;BME280;58380;48.312;9.246;2024-01-30T17:46:42;94985.47;;;3.82;100.00
71057;BME280;58380;48.312;9.246;2024-01-30T17:49:43;94981.22;;;3.81;100.00
71057;BME280;58380;48.312;9.246;2024-01-30T17:52:43;94993.13;;;3.69;100.00
71057;BME280;58380;48.312;9.246;2024-01-30T17:55:44;94989.00;;;3.75;100.00
71057;BME280;58380;48.312;9.246;2024-01-30T17:58:44;94986.94;;;3.70;100.00
71057;BME280;58380;48.312;9.246;2024-01-30T18:01:48;94990.88;;;3.66;100.00
71057;BME280;58380;48.312;9.246;2024-01-30T18:04:48;95007.09;;;3.61;100.00
71057;BME280;58380;48.312;9.246;2024-01-30T18:07:49;94997.91;;;3.51;100.00
71057;BME280;58380;48.312;9.246;2024-01-30T18:10:49;94998.19;;;3.41;100.00
71057;BME280;58380;48.312;9.246;2024-01-30T18:13:50;94994.66;;;3.34;100.00
71057;BME280;58380;48.312;9.246;2024-01-30T18:16:51;94993.78;;;3.41;100.00
71057;BME280;58380;48.312;9.246;2024-01-30T18:19:52;95005.00;;;3.42;100.00
71057;BME280;58380;48.312;9.246;2024-01-30T18:22:52;95018.06;;;3.42;100.00
71057;BME280;58380;48.312;9.246;2024-01-30T18:25:53;95012.56;;;3.37;100.00
71057;BME280;58380;48.312;9.246;2024-01-30T18:28:59;95012.50;;;3.30;100.00
71057;BME280;58380;48.312;9.246;2024-01-30T18:32:01;94994.38;;;3.14;100.00
71057;BME280;58380;48.312;9.246;2024-01-30T18:35:01;95011.06;;;3.28;100.00
71057;BME280;58380;48.312;9.246;2024-01-30T18:38:02;95015.91;;;3.31;100.00
71057;BME280;58380;48.312;9.246;2024-01-30T18:41:03;95024.53;;;3.31;100.00
71057;BME280;58380;48.312;9.246;2024-01-30T18:44:04;94999.84;;;3.04;100.00
71057;BME280;58380;48.312;9.246;2024-01-30T18:47:04;95024.44;;;3.10;100.00
71057;BME280;58380;48.312;9.246;2024-01-30T18:50:05;95022.28;;;3.13;100.00
71057;BME280;58380;48.312;9.246;2024-01-30T18:53:06;95014.31;;;3.07;100.00
71057;BME280;58380;48.312;9.246;2024-01-30T18:56:06;95028.47;;;3.12;100.00
71057;BME280;58380;48.312;9.246;2024-01-30T18:59:08;95024.25;;;3.11;100.00
71057;BME280;58380;48.312;9.246;2024-01-30T19:02:08;95017.94;;;3.06;100.00
71057;BME280;58380;48.312;9.246;2024-01-30T19:05:09;95022.44;;;3.12;100.00
71057;BME280;58380;48.312;9.246;2024-01-30T19:08:09;95029.09;;;3.14;100.00
71057;BME280;58380;48.312;9.246;2024-01-30T19:11:18;95014.25;;;3.00;100.00
71057;BME280;58380;48.312;9.246;2024-01-30T19:14:19;95038.28;;;3.10;100.00
71057;BME280;58380;48.312;9.246;2024-01-30T19:17:19;95028.22;;;3.07;100.00
71057;BME280;58380;48.312;9.246;2024-01-30T19:20:20;95021.88;;;3.01;100.00
71057;BME280;58380;48.312;9.246;2024-01-30T19:23:22;95030.81;;;3.07;100.00
71057;BME280;58380;48.312;9.246;2024-01-30T19:26:23;95041.53;;;3.12;100.00
71057;BME280;58380;48.312;9.246;2024-01-30T19:29:23;95039.09;;;3.11;100.00
71057;BME280;58380;48.312;9.246;2024-01-30T19:32:27;95030.06;;;2.98;100.00
71057;BME280;58380;48.312;9.246;2024-01-30T19:35:27;95013.41;;;2.99;100.00
71057;BME280;58380;48.312;9.246;2024-01-30T19:38:28;95043.50;;;3.10;100.00
71057;BME280;58380;48.312;9.246;2024-01-30T19:41:28;95027.63;;;2.97;100.00
71057;BME280;58380;48.312;9.246;2024-01-30T19:44:29;95037.19;;;3.05;100.00
71057;BME280;58380;48.312;9.246;2024-01-30T19:47:29;95032.31;;;3.01;100.00
71057;BME280;58380;48.312;9.246;2024-01-30T19:50:29;95018.91;;;2.90;100.00
71057;BME280;58380;48.312;9.246;2024-01-30T19:53:30;95046.47;;;3.07;100.00
71057;BME280;58380;48.312;9.246;2024-01-30T19:59:54;94998.81;;;2.75;100.00
71057;BME280;58380;48.312;9.246;2024-01-30T20:02:54;95007.94;;;2.71;100.00
71057;BME280;58380;48.312;9.246;2024-01-30T20:05:55;95039.03;;;2.96;100.00
71057;BME280;58380;48.312;9.246;2024-01-30T20:08:56;95043.63;;;2.94;100.00
71057;BME280;58380;48.312;9.246;2024-01-30T20:11:57;95033.38;;;2.92;100.00
71057;BME280;58380;48.312;9.246;2024-01-30T20:14:57;95043.97;;;2.91;100.00
71057;BME280;58380;48.312;9.246;2024-01-30T20:17:58;95034.25;;;2.85;100.00
71057;BME280;58380;48.312;9.246;2024-01-30T20:21:02;95033.63;;;2.83;100.00
71057;BME280;58380;48.312;9.246;2024-01-30T20:24:03;95038.59;;;2.92;100.00
71057;BME280;58380;48.312;9.246;2024-01-30T20:27:04;95032.75;;;2.90;100.00
71057;BME280;58380;48.312;9.246;2024-01-30T20:30:06;95029.84;;;2.85;100.00
71057;BME280;58380;48.312;9.246;2024-01-30T20:33:13;95006.34;;;2.70;100.00
71057;BME280;58380;48.312;9.246;2024-01-30T20:36:16;95030.88;;;2.76;100.00
71057;BME280;58380;48.312;9.246;2024-01-30T20:39:17;95034.50;;;2.75;100.00
71057;BME280;58380;48.312;9.246;2024-01-30T20:42:17;95023.13;;;2.68;100.00
71057;BME280;58380;48.312;9.246;2024-01-30T20:45:19;95027.84;;;2.72;100.00
71057;BME280;58380;48.312;9.246;2024-01-30T20:48:20;95035.53;;;2.66;100.00
71057;BME280;58380;48.312;9.246;2024-01-30T20:51:20;95062.19;;;2.76;100.00
71057;BME280;58380;48.312;9.246;2024-01-30T20:54:21;95057.31;;;2.73;100.00
71057;BME280;58380;48.312;9.246;2024-01-30T20:57:21;95052.56;;;2.53;100.00
71057;BME280;58380;48.312;9.246;2024-01-30T21:00:22;95065.13;;;2.50;100.00
71057;BME280;58380;48.312;9.246;2024-01-30T21:03:22;95055.00;;;2.24;100.00
71057;BME280;58380;48.312;9.246;2024-01-30T21:06:22;95054.06;;;2.16;100.00
71057;BME280;58380;48.312;9.246;2024-01-30T21:09:23;95065.47;;;2.15;100.00
71057;BME280;58380;48.312;9.246;2024-01-30T21:12:23;95069.09;;;2.06;100.00
71057;BME280;58380;48.312;9.246;2024-01-30T21:15:24;95057.09;;;1.89;100.00
71057;BME280;58380;48.312;9.246;2024-01-30T21:18:24;95069.03;;;1.83;100.00
71057;BME280;58380;48.312;9.246;2024-01-30T21:21:25;95083.03;;;1.82;100.00
71057;BME280;58380;48.312;9.246;2024-01-30T21:24:25;95075.41;;;1.72;100.00
71057;BME280;58380;48.312;9.246;2024-01-30T21:27:26;95074.91;;;1.69;100.00
71057;BME280;58380;48.312;9.246;2024-01-30T21:30:26;95075.09;;;1.67;100.00
71057;BME280;58380;48.312;9.246;2024-01-30T21:33:27;95081.44;;;1.65;100.00
71057;BME280;58380;48.312;9.246;2024-01-30T21:36:28;95070.22;;;1.56;100.00
71057;BME280;58380;48.312;9.246;2024-01-30T21:39:28;95079.34;;;1.52;100.00
71057;BME280;58380;48.312;9.246;2024-01-30T21:42:29;95086.03;;;1.46;100.00
71057;BME280;58380;48.312;9.246;2024-01-30T21:45:30;95070.28;;;1.32;100.00
71057;BME280;58380;48.312;9.246;2024-01-30T21:48:31;95079.38;;;1.36;100.00
71057;BME280;58380;48.312;9.246;2024-01-30T21:51:31;95077.28;;;1.23;100.00
71057;BME280;58380;48.312;9.246;2024-01-30T21:54:31;95072.72;;;1.17;100.00
71057;BME280;58380;48.312;9.246;2024-01-30T21:57:32;95071.13;;;1.16;100.00
71057;BME280;58380;48.312;9.246;2024-01-30T22:00:32;95062.66;;;1.14;100.00
71057;BME280;58380;48.312;9.246;2024-01-30T22:03:33;95053.72;;;0.92;100.00
71057;BME280;58380;48.312;9.246;2024-01-30T22:06:33;95065.91;;;0.99;100.00
71057;BME280;58380;48.312;9.246;2024-01-30T22:09:35;95065.59;;;0.94;100.00
71057;BME280;58380;48.312;9.246;2024-01-30T22:12:35;95066.72;;;0.83;100.00
71057;BME280;58380;48.312;9.246;2024-01-30T22:15:37;95063.47;;;0.73;100.00
71057;BME280;58380;48.312;9.246;2024-01-30T22:18:39;95060.88;;;0.65;100.00
